Terminal Aerodrome Forecast
Issued by NWS Aberdeen, SD

Home | Current Version | Previous Version | Text Only | Print | Product List | Glossary On
Versions: 1 2 3 4 5 6 7 8 9 10 11 12 13 14 15 16 17 18 19 20 21 22 23 24 25 26 27 28 29 30 31 32 33 34 35 36 37 38 39 40
000
FTUS43 KABR 281929 AAA
TAFABR
TAF AMD
KABR 281929Z 2819/2918 05005KT P6SM SCT021
     FM290900 02004KT P6SM SCT130
     FM291300 06004KT P6SM SCT140
     FM291500 13006KT P6SM SCT150=

USA.gov is the U.S. government's official web portal to all federal, state and local government web resources and services.